Time,TemperatureF,DewpointF,PressureIn,WindDirection,WindDirectionDegrees,WindSpeedMPH,WindSpeedGustMPH,Humidity,HourlyPrecipIn,Conditions,Clouds,dailyrainin,SoftwareType,DateUTC
2013-07-11 00:27:00,61.2,57.6,29.87,WNW,292,0.0,-999.0,88,-99.99,,,0.00,Acu-Link.com,2013-07-11 04:27:00,
2013-07-11 00:43:00,61.3,57.7,29.88,NW,315,1.7,-999.0,88,-99.99,,,0.00,Acu-Link.com,2013-07-11 04:43:00,
2013-07-11 00:58:00,61.5,57.3,29.88,West,270,0.0,-999.0,86,-99.99,,,0.00,Acu-Link.com,2013-07-11 04:58:00,
2013-07-11 01:13:00,61.7,57.1,29.88,SSW,202,0.0,-999.0,85,-99.99,,,0.00,Acu-Link.com,2013-07-11 05:13:00,
2013-07-11 01:29:00,61.2,57.0,29.88,WNW,292,0.0,-999.0,86,-99.99,,,0.00,Acu-Link.com,2013-07-11 05:29:00,
2013-07-11 01:44:00,61.2,56.7,29.89,WNW,292,0.0,-999.0,85,-99.99,,,0.00,Acu-Link.com,2013-07-11 05:44:00,
2013-07-11 02:00:00,60.4,55.9,29.89,WNW,292,0.0,-999.0,85,-99.99,,,0.00,Acu-Link.com,2013-07-11 06:00:00,
2013-07-11 02:15:00,58.5,55.9,29.88,NW,315,0.0,-999.0,91,-99.99,,,0.00,Acu-Link.com,2013-07-11 06:15:00,
2013-07-11 02:30:00,59.5,56.3,29.88,NW,315,0.0,-999.0,89,-99.99,,,0.00,Acu-Link.com,2013-07-11 06:30:00,
2013-07-11 02:45:00,59.2,56.6,29.88,NNW,337,0.0,-999.0,91,-99.99,,,0.00,Acu-Link.com,2013-07-11 06:45:00,
2013-07-11 03:00:00,58.8,55.9,29.88,NNW,337,0.0,-999.0,90,-99.99,,,0.00,Acu-Link.com,2013-07-11 07:00:00,
2013-07-11 03:15:00,58.6,56.0,29.88,NNW,337,0.0,-999.0,91,-99.99,,,0.00,Acu-Link.com,2013-07-11 07:15:00,
2013-07-11 03:31:00,58.5,55.9,29.89,North,0,0.0,-999.0,91,-99.99,,,0.00,Acu-Link.com,2013-07-11 07:31:00,
2013-07-11 03:46:00,58.1,56.4,29.90,North,0,0.0,-999.0,94,-99.99,,,0.00,Acu-Link.com,2013-07-11 07:46:00,
2013-07-11 04:01:00,57.7,55.1,29.90,North,0,0.0,-999.0,91,-99.99,,,0.00,Acu-Link.com,2013-07-11 08:01:00,
2013-07-11 04:16:00,57.6,55.0,29.91,North,0,0.0,-999.0,91,-99.99,,,0.00,Acu-Link.com,2013-07-11 08:16:00,
2013-07-11 04:31:00,57.4,54.8,29.91,North,0,0.0,-999.0,91,-99.99,,,0.00,Acu-Link.com,2013-07-11 08:31:00,
2013-07-11 04:46:00,57.0,55.0,29.91,WNW,292,0.0,-999.0,93,-99.99,,,0.00,Acu-Link.com,2013-07-11 08:46:00,
2013-07-11 05:01:00,57.2,54.9,29.92,NNW,337,0.0,-999.0,92,-99.99,,,0.00,Acu-Link.com,2013-07-11 09:01:00,
2013-07-11 05:16:00,57.2,54.9,29.92,South,180,0.0,-999.0,92,-99.99,,,0.00,Acu-Link.com,2013-07-11 09:16:00,
2013-07-11 05:31:00,56.7,54.4,29.92,NE,45,0.0,-999.0,92,-99.99,,,0.00,Acu-Link.com,2013-07-11 09:31:00,
2013-07-11 05:46:00,56.7,54.4,29.93,South,180,0.0,-999.0,92,-99.99,,,0.00,Acu-Link.com,2013-07-11 09:46:00,
2013-07-11 06:01:00,56.3,53.7,29.93,South,180,0.0,-999.0,91,-99.99,,,0.00,Acu-Link.com,2013-07-11 10:01:00,
2013-07-11 06:16:00,56.1,54.4,29.94,South,180,0.0,-999.0,94,-99.99,,,0.00,Acu-Link.com,2013-07-11 10:16:00,
2013-07-11 06:32:00,56.3,54.6,29.95,South,180,0.0,-999.0,94,-99.99,,,0.00,Acu-Link.com,2013-07-11 10:32:00,
2013-07-11 06:47:00,56.8,55.1,29.95,SSE,157,0.0,-999.0,94,-99.99,,,0.00,Acu-Link.com,2013-07-11 10:47:00,
2013-07-11 07:02:00,57.0,54.7,29.95,NW,315,0.0,-999.0,92,-99.99,,,0.00,Acu-Link.com,2013-07-11 11:02:00,
2013-07-11 07:17:00,57.9,56.2,29.96,West,270,2.7,-999.0,94,-99.99,,,0.00,Acu-Link.com,2013-07-11 11:17:00,
2013-07-11 07:32:00,59.2,57.8,29.96,WSW,247,1.7,-999.0,95,-99.99,,,0.00,Acu-Link.com,2013-07-11 11:32:00,
2013-07-11 07:47:00,60.1,58.4,29.96,WNW,292,2.2,-999.0,94,-99.99,,,0.00,Acu-Link.com,2013-07-11 11:47:00,
2013-07-11 08:02:00,61.5,58.5,29.97,WNW,292,2.7,-999.0,90,-99.99,,,0.00,Acu-Link.com,2013-07-11 12:02:00,
2013-07-11 08:17:00,63.1,58.5,29.97,WNW,292,3.7,-999.0,85,-99.99,,,0.00,Acu-Link.com,2013-07-11 12:17:00,
2013-07-11 08:32:00,66.6,59.9,29.97,NNW,337,3.2,-999.0,79,-99.99,,,0.00,Acu-Link.com,2013-07-11 12:32:00,
2013-07-11 08:48:00,66.9,58.7,29.98,ESE,112,0.0,-999.0,75,-99.99,,,0.00,Acu-Link.com,2013-07-11 12:48:00,
2013-07-11 09:40:00,70.5,59.8,29.98,North,0,4.7,-999.0,69,-99.99,,,0.00,Acu-Link.com,2013-07-11 13:40:00,
2013-07-11 09:57:00,71.2,60.5,29.97,NNW,337,5.8,-999.0,69,-99.99,,,0.00,Acu-Link.com,2013-07-11 13:57:00,
2013-07-11 10:14:00,70.3,59.2,29.97,NW,315,3.7,-999.0,68,-99.99,,,0.00,Acu-Link.com,2013-07-11 14:14:00,
2013-07-11 10:44:00,73.8,60.0,29.97,North,0,5.8,-999.0,62,-99.99,,,0.00,Acu-Link.com,2013-07-11 14:44:00,
2013-07-11 11:14:00,72.7,59.4,29.97,NNE,22,4.2,-999.0,63,-99.99,,,0.00,Acu-Link.com,2013-07-11 15:14:00,
2013-07-11 11:30:00,73.9,60.0,29.97,WNW,292,4.7,-999.0,62,-99.99,,,0.00,Acu-Link.com,2013-07-11 15:30:00,
2013-07-11 11:45:00,73.6,59.3,29.97,NNW,337,4.2,-999.0,61,-99.99,,,0.00,Acu-Link.com,2013-07-11 15:45:00,
2013-07-11 12:01:00,75.0,60.6,29.97,NW,315,4.2,-999.0,61,-99.99,,,0.00,Acu-Link.com,2013-07-11 16:01:00,
2013-07-11 12:16:00,73.8,60.0,29.97,NNE,22,7.8,-999.0,62,-99.99,,,0.00,Acu-Link.com,2013-07-11 16:16:00,
2013-07-11 12:31:00,73.9,59.6,29.97,NNW,337,4.7,-999.0,61,-99.99,,,0.00,Acu-Link.com,2013-07-11 16:31:00,
2013-07-11 12:55:00,75.2,58.4,29.97,ESE,112,6.8,-999.0,56,-99.99,,,0.00,Acu-Link.com,2013-07-11 16:55:00,
2013-07-11 13:10:00,74.8,59.0,29.96,WNW,292,3.7,-999.0,58,-99.99,,,0.00,Acu-Link.com,2013-07-11 17:10:00,
2013-07-11 13:25:00,75.0,57.2,29.96,NW,315,5.3,-999.0,54,-99.99,,,0.00,Acu-Link.com,2013-07-11 17:25:00,
2013-07-11 13:40:00,75.4,59.6,29.96,NW,315,8.3,-999.0,58,-99.99,,,0.00,Acu-Link.com,2013-07-11 17:40:00,
2013-07-11 13:55:00,74.1,57.4,29.96,NNW,337,3.7,-999.0,56,-99.99,,,0.00,Acu-Link.com,2013-07-11 17:55:00,
2013-07-11 14:10:00,76.6,58.2,29.97,East,90,6.3,-999.0,53,-99.99,,,0.00,Acu-Link.com,2013-07-11 18:10:00,
2013-07-11 14:26:00,76.8,60.4,29.97,SE,135,5.8,-999.0,57,-99.99,,,0.00,Acu-Link.com,2013-07-11 18:26:00,
2013-07-11 14:41:00,76.8,60.4,29.97,NNE,22,4.2,-999.0,57,-99.99,,,0.00,Acu-Link.com,2013-07-11 18:41:00,
2013-07-11 14:56:00,76.6,59.7,29.97,NNW,337,9.4,-999.0,56,-99.99,,,0.00,Acu-Link.com,2013-07-11 18:56:00,
2013-07-11 15:26:00,76.5,59.1,29.97,NW,315,4.2,-999.0,55,-99.99,,,0.00,Acu-Link.com,2013-07-11 19:26:00,
2013-07-11 15:41:00,76.6,58.2,29.97,NW,315,4.7,-999.0,53,-99.99,,,0.00,Acu-Link.com,2013-07-11 19:41:00,
2013-07-11 15:56:00,77.2,58.7,29.97,NNW,337,7.8,-999.0,53,-99.99,,,0.00,Acu-Link.com,2013-07-11 19:56:00,
2013-07-11 16:11:00,77.9,58.8,29.97,NNE,22,7.8,-999.0,52,-99.99,,,0.00,Acu-Link.com,2013-07-11 20:11:00,
2013-07-11 16:26:00,77.4,58.4,29.97,NNW,337,6.8,-999.0,52,-99.99,,,0.00,Acu-Link.com,2013-07-11 20:26:00,
2013-07-11 16:57:00,75.7,58.4,29.97,West,270,6.8,-999.0,55,-99.99,,,0.00,Acu-Link.com,2013-07-11 20:57:00,
2013-07-11 17:27:00,74.8,56.5,29.97,NNW,337,3.7,-999.0,53,-99.99,,,0.00,Acu-Link.com,2013-07-11 21:27:00,
2013-07-11 17:57:00,76.5,57.0,29.96,NW,315,4.7,-999.0,51,-99.99,,,0.00,Acu-Link.com,2013-07-11 21:57:00,
2013-07-11 18:12:00,76.6,57.6,29.96,NE,45,4.7,-999.0,52,-99.99,,,0.00,Acu-Link.com,2013-07-11 22:12:00,
2013-07-11 18:42:00,81.7,58.9,29.96,NNW,337,5.3,-999.0,46,-99.99,,,0.00,Acu-Link.com,2013-07-11 22:42:00,
2013-07-11 18:58:00,81.5,59.3,29.96,NNW,337,1.1,-999.0,47,-99.99,,,0.00,Acu-Link.com,2013-07-11 22:58:00,
2013-07-11 19:13:00,79.2,58.4,29.97,NNE,22,5.3,-999.0,49,-99.99,,,0.00,Acu-Link.com,2013-07-11 23:13:00,
2013-07-11 19:28:00,78.6,58.4,29.96,NNW,337,4.2,-999.0,50,-99.99,,,0.00,Acu-Link.com,2013-07-11 23:28:00,
2013-07-11 19:43:00,80.1,58.6,29.96,WNW,292,3.2,-999.0,48,-99.99,,,0.00,Acu-Link.com,2013-07-11 23:43:00,
2013-07-11 20:13:00,79.3,60.1,29.96,WNW,292,1.7,-999.0,52,-99.99,,,0.00,Acu-Link.com,2013-07-12 00:13:00,
2013-07-11 20:29:00,77.2,59.8,29.96,NE,45,1.1,-999.0,55,-99.99,,,0.00,Acu-Link.com,2013-07-12 00:29:00,
2013-07-11 20:44:00,74.5,59.2,29.96,NNW,337,0.0,-999.0,59,-99.99,,,0.00,Acu-Link.com,2013-07-12 00:44:00,
2013-07-11 20:59:00,71.8,59.4,29.96,NNE,22,2.7,-999.0,65,-99.99,,,0.00,Acu-Link.com,2013-07-12 00:59:00,
2013-07-11 21:14:00,70.2,59.1,29.96,North,0,1.7,-999.0,68,-99.99,,,0.00,Acu-Link.com,2013-07-12 01:14:00,
2013-07-11 21:29:00,68.0,59.0,29.96,NE,45,2.2,-999.0,73,-99.99,,,0.00,Acu-Link.com,2013-07-12 01:29:00,
2013-07-11 21:59:00,65.8,58.0,29.97,NNW,337,2.7,-999.0,76,-99.99,,,0.00,Acu-Link.com,2013-07-12 01:59:00,
2013-07-11 22:14:00,65.1,57.7,29.98,NE,45,3.7,-999.0,77,-99.99,,,0.00,Acu-Link.com,2013-07-12 02:14:00,
2013-07-11 22:29:00,64.4,57.4,29.98,NNW,337,2.7,-999.0,78,-99.99,,,0.00,Acu-Link.com,2013-07-12 02:29:00,
2013-07-11 22:44:00,63.3,57.4,29.99,NNW,337,3.7,-999.0,81,-99.99,,,0.00,Acu-Link.com,2013-07-12 02:44:00,
2013-07-11 23:00:00,61.7,56.5,29.99,NNW,337,2.7,-999.0,83,-99.99,,,0.00,Acu-Link.com,2013-07-12 03:00:00,
2013-07-11 23:15:00,60.6,56.4,30.00,North,0,0.0,-999.0,86,-99.99,,,0.00,Acu-Link.com,2013-07-12 03:15:00,
2013-07-11 23:31:00,59.7,55.8,30.00,NNE,22,0.0,-999.0,87,-99.99,,,0.00,Acu-Link.com,2013-07-12 03:31:00,
2013-07-11 23:53:00,58.3,54.8,30.00,NNE,22,0.0,-999.0,88,-99.99,,,0.00,Acu-Link.com,2013-07-12 03:53:00,